createdAt,value
2023-01-02T00:01:57.835Z,23.08
2023-01-02T00:05:00.390Z,21.45
2023-01-02T00:08:02.640Z,21.08
2023-01-02T00:11:05.292Z,22.17
2023-01-02T00:14:07.423Z,21.95
2023-01-02T00:17:10.007Z,22.10
2023-01-02T00:20:12.239Z,21.60
2023-01-02T00:23:14.698Z,21.17
2023-01-02T00:26:16.831Z,21.83
2023-01-02T00:29:19.325Z,22.33
2023-01-02T00:32:21.543Z,22.65
2023-01-02T00:35:24.013Z,22.35
2023-01-02T00:38:26.168Z,22.35
2023-01-02T00:41:28.657Z,20.45
2023-01-02T00:44:30.816Z,21.55
2023-01-02T00:47:33.263Z,22.02
2023-01-02T00:50:35.473Z,22.30
2023-01-02T00:53:38.043Z,23.15
2023-01-02T00:56:40.231Z,23.33
2023-01-02T00:59:42.639Z,21.00
2023-01-02T01:02:44.841Z,22.15
2023-01-02T01:05:47.378Z,23.20
2023-01-02T01:08:49.545Z,24.77
2023-01-02T01:11:52.052Z,23.25
2023-01-02T01:14:54.166Z,24.65
2023-01-02T01:17:56.574Z,24.27
2023-01-02T01:20:58.687Z,25.02
2023-01-02T01:24:01.133Z,24.27
2023-01-02T01:27:03.300Z,24.90
2023-01-02T01:30:06.620Z,24.02
2023-01-02T01:33:08.791Z,25.75
2023-01-02T01:36:16.584Z,26.12
2023-01-02T01:39:18.789Z,29.30
2023-01-02T01:42:21.340Z,26.87
2023-01-02T01:45:23.503Z,28.05
2023-01-02T01:48:26.015Z,26.73
2023-01-02T01:51:30.522Z,27.92
2023-01-02T01:54:55.361Z,26.50
2023-01-02T01:58:14.136Z,27.33
2023-01-02T02:01:17.875Z,26.48
2023-01-02T02:04:22.599Z,26.85
2023-01-02T02:07:25.583Z,27.27
2023-01-02T02:10:28.136Z,28.15
2023-01-02T02:13:33.675Z,27.42
2023-01-02T02:16:56.532Z,26.30
2023-01-02T02:20:21.351Z,26.10
2023-01-02T02:24:15.727Z,25.15
2023-01-02T02:27:47.583Z,26.30
2023-01-02T02:30:57.507Z,24.73
2023-01-02T02:34:15.123Z,26.42
2023-01-02T02:38:01.657Z,27.20
2023-01-02T02:41:17.316Z,24.70
2023-01-02T02:44:41.138Z,26.20
2023-01-02T02:47:48.816Z,25.83
2023-01-02T02:50:56.333Z,25.15
2023-01-02T02:54:11.300Z,26.55
2023-01-02T02:57:15.367Z,26.48
2023-01-02T03:00:21.969Z,26.05
2023-01-02T03:03:24.305Z,27.58
2023-01-02T03:06:33.109Z,25.48
2023-01-02T03:09:41.221Z,28.02
2023-01-02T03:12:54.326Z,26.70
2023-01-02T03:16:08.796Z,22.73
2023-01-02T03:19:19.552Z,27.45
2023-01-02T03:22:36.479Z,24.95
2023-01-02T03:25:40.037Z,27.30
2023-01-02T03:28:46.287Z,25.45
2023-01-02T03:31:52.890Z,25.60
2023-01-02T03:34:55.735Z,26.77
2023-01-02T03:37:59.689Z,24.17
2023-01-02T03:41:17.068Z,26.48
2023-01-02T03:44:22.230Z,25.90
2023-01-02T03:47:41.040Z,27.73
2023-01-02T03:50:50.968Z,25.88
2023-01-02T03:53:53.917Z,26.95
2023-01-02T03:57:07.246Z,26.45
2023-01-02T04:00:16.960Z,26.62
2023-01-02T04:03:27.388Z,25.17
2023-01-02T04:06:37.540Z,25.30
2023-01-02T04:09:42.412Z,23.40
2023-01-02T04:12:50.938Z,22.60
2023-01-02T04:15:55.253Z,21.77
2023-01-02T04:19:03.213Z,20.27
2023-01-02T04:22:09.902Z,20.50
2023-01-02T04:25:17.950Z,22.10
2023-01-02T04:28:32.165Z,22.52
2023-01-02T04:31:44.139Z,21.20
2023-01-02T04:34:47.973Z,20.73
2023-01-02T04:37:50.740Z,21.62
2023-01-02T04:40:53.272Z,23.17
2023-01-02T04:43:59.091Z,21.17
2023-01-02T04:47:01.523Z,24.35
2023-01-02T04:50:05.392Z,23.60
2023-01-02T04:53:09.584Z,21.52
2023-01-02T04:56:12.163Z,23.87
2023-01-02T04:59:14.576Z,20.40
2023-01-02T05:02:16.850Z,21.20
2023-01-02T05:05:19.493Z,21.33
2023-01-02T05:08:21.678Z,22.17
2023-01-02T05:11:24.122Z,19.87
2023-01-02T05:14:26.319Z,18.70
2023-01-02T05:17:28.779Z,21.87
2023-01-02T05:20:30.917Z,20.00
2023-01-02T05:23:48.611Z,20.48
2023-01-02T05:26:50.749Z,18.80
2023-01-02T05:29:53.366Z,20.35
2023-01-02T05:32:55.543Z,21.33
2023-01-02T05:35:58.067Z,21.20
2023-01-02T05:39:01.703Z,20.62
2023-01-02T05:42:04.475Z,19.83
2023-01-02T05:45:07.351Z,19.10
2023-01-02T05:48:09.918Z,19.30
2023-01-02T05:51:14.759Z,19.25
2023-01-02T05:54:17.231Z,20.00
2023-01-02T05:57:19.423Z,19.85
2023-01-02T06:00:22.248Z,18.40
2023-01-02T06:03:24.990Z,20.83
2023-01-02T06:06:33.270Z,20.12
2023-01-02T06:09:36.044Z,20.15
2023-01-02T06:12:38.552Z,21.27
2023-01-02T06:15:40.973Z,20.40
2023-01-02T06:18:43.261Z,20.85
2023-01-02T06:21:45.688Z,21.12
2023-01-02T06:24:47.871Z,19.90
2023-01-02T06:27:53.148Z,19.90
2023-01-02T06:31:02.503Z,20.25
2023-01-02T06:34:05.032Z,20.45
2023-01-02T06:37:10.002Z,20.12
2023-01-02T06:40:13.076Z,18.48
2023-01-02T06:43:15.316Z,20.40
2023-01-02T06:46:21.709Z,19.58
2023-01-02T06:49:23.975Z,18.52
2023-01-02T06:52:28.402Z,19.87
2023-01-02T06:55:31.081Z,20.37
2023-01-02T06:58:35.974Z,20.37
2023-01-02T07:01:38.517Z,21.23
2023-01-02T07:04:43.499Z,20.33
2023-01-02T07:07:45.851Z,18.23
2023-01-02T07:10:52.849Z,19.67
2023-01-02T07:13:56.435Z,19.50
2023-01-02T07:17:00.363Z,17.52
2023-01-02T07:20:02.905Z,19.40
2023-01-02T07:23:05.600Z,19.17
2023-01-02T07:26:08.198Z,20.20
2023-01-02T07:29:10.922Z,21.12
2023-01-02T07:32:13.146Z,19.67
2023-01-02T07:35:15.685Z,20.15
2023-01-02T07:38:17.980Z,20.00
2023-01-02T07:41:23.374Z,20.12
2023-01-02T07:44:25.543Z,19.27
2023-01-02T07:47:28.022Z,19.87
2023-01-02T07:50:30.370Z,20.08
2023-01-02T07:53:33.485Z,18.27
2023-01-02T07:56:35.722Z,18.23
2023-01-02T07:59:38.343Z,18.25
2023-01-02T08:02:40.795Z,18.27
2023-01-02T08:05:43.395Z,18.08
2023-01-02T08:08:45.909Z,18.95
2023-01-02T08:11:48.367Z,18.70
2023-01-02T08:14:51.601Z,19.50
2023-01-02T08:17:56.510Z,18.85
2023-01-02T08:20:58.729Z,20.00
2023-01-02T08:24:01.171Z,19.52
2023-01-02T08:27:03.648Z,20.25
2023-01-02T08:30:08.461Z,20.58
2023-01-02T08:33:11.413Z,20.30
2023-01-02T08:36:14.960Z,21.33
2023-01-02T08:39:17.277Z,19.58
2023-01-02T08:42:19.824Z,20.60
2023-01-02T08:45:22.050Z,20.50
2023-01-02T08:48:24.575Z,21.37
2023-01-02T08:51:27.936Z,18.83
2023-01-02T08:54:32.583Z,20.58
2023-01-02T08:57:34.983Z,19.35
2023-01-02T09:00:37.551Z,21.02
2023-01-02T09:03:39.843Z,20.10
2023-01-02T09:06:43.821Z,20.45
2023-01-02T09:09:46.369Z,19.42
2023-01-02T09:12:49.014Z,20.08
2023-01-02T09:15:52.252Z,20.12
2023-01-02T09:19:01.650Z,20.33
2023-01-02T09:22:04.292Z,18.85
2023-01-02T09:25:07.351Z,18.67
2023-01-02T09:28:09.516Z,20.23
2023-01-02T09:31:14.651Z,20.40
2023-01-02T09:34:17.296Z,20.65
2023-01-02T09:37:19.973Z,19.70
2023-01-02T09:40:24.187Z,21.37
2023-01-02T09:43:59.087Z,20.70
2023-01-02T09:47:12.020Z,20.80
2023-01-02T09:50:29.369Z,20.88
2023-01-02T09:53:34.899Z,21.42
2023-01-02T09:56:41.500Z,21.80
2023-01-02T09:59:53.159Z,21.45
2023-01-02T10:03:27.505Z,21.77
2023-01-02T10:06:45.279Z,21.35
2023-01-02T10:09:58.378Z,20.15
2023-01-02T10:13:16.891Z,21.95
2023-01-02T10:16:24.140Z,22.58
2023-01-02T10:20:02.047Z,21.90
2023-01-02T10:23:12.008Z,21.48
2023-01-02T10:26:18.436Z,21.30
2023-01-02T10:29:44.784Z,21.55
2023-01-02T10:33:02.582Z,22.52
2023-01-02T10:36:05.015Z,23.73
2023-01-02T10:39:17.716Z,23.92
2023-01-02T10:42:21.065Z,21.73
2023-01-02T10:45:23.946Z,22.50
2023-01-02T10:48:31.597Z,22.33
2023-01-02T10:51:38.167Z,22.20
2023-01-02T10:54:59.074Z,21.80
2023-01-02T10:58:19.707Z,21.67
2023-01-02T11:01:22.702Z,21.58
2023-01-02T11:04:30.185Z,23.48
2023-01-02T11:07:38.344Z,21.17
2023-01-02T11:10:43.873Z,22.00
2023-01-02T11:13:54.318Z,21.10
2023-01-02T11:17:08.760Z,20.25
2023-01-02T11:20:37.685Z,20.52
2023-01-02T11:23:46.146Z,20.48
2023-01-02T11:26:50.004Z,21.33
2023-01-02T11:29:52.736Z,19.75
2023-01-02T11:33:13.418Z,19.52
2023-01-02T11:36:18.524Z,20.42
2023-01-02T11:39:24.289Z,21.58
2023-01-02T11:43:08.867Z,20.48
2023-01-02T11:46:34.637Z,20.65
2023-01-02T11:49:44.789Z,21.37
2023-01-02T11:52:58.688Z,21.52
2023-01-02T11:56:06.297Z,21.33
2023-01-02T11:59:28.888Z,20.83
2023-01-02T12:02:42.076Z,21.17
2023-01-02T12:05:59.189Z,19.98
2023-01-02T12:09:13.727Z,21.35
2023-01-02T12:12:33.608Z,19.77
2023-01-02T12:15:38.171Z,20.15
2023-01-02T12:19:13.291Z,19.83
2023-01-02T12:22:18.446Z,20.60
2023-01-02T12:25:35.076Z,20.40
2023-01-02T12:28:48.712Z,21.02
2023-01-02T12:32:20.555Z,18.85
2023-01-02T12:35:41.226Z,19.60
2023-01-02T12:38:56.467Z,19.23
2023-01-02T12:42:17.619Z,17.65
2023-01-02T12:45:29.277Z,17.00
2023-01-02T12:48:40.183Z,20.25
2023-01-02T12:52:16.960Z,18.95
2023-01-02T12:55:27.328Z,19.75
2023-01-02T12:59:00.954Z,20.35
2023-01-02T13:02:16.159Z,21.17
2023-01-02T13:05:22.133Z,19.52
2023-01-02T13:08:47.770Z,19.25
2023-01-02T13:12:16.598Z,18.65
2023-01-02T13:15:26.050Z,19.15
2023-01-02T13:19:01.927Z,19.42
2023-01-02T13:22:16.721Z,19.37
2023-01-02T13:25:20.673Z,20.25
2023-01-02T13:28:24.734Z,21.87
2023-01-02T13:31:48.210Z,22.00
2023-01-02T13:34:53.893Z,20.33
2023-01-02T13:37:57.112Z,22.20
2023-01-02T13:41:00.435Z,20.20
2023-01-02T13:44:03.263Z,21.00
2023-01-02T13:47:17.759Z,20.75
2023-01-02T13:50:35.487Z,20.62
2023-01-02T13:53:42.059Z,20.50
2023-01-02T13:57:15.441Z,20.45
2023-01-02T14:00:17.583Z,19.90
2023-01-02T14:03:20.089Z,21.12
2023-01-02T14:06:33.279Z,22.02
2023-01-02T14:10:01.570Z,21.73
2023-01-02T14:13:11.315Z,22.62
2023-01-02T14:16:23.002Z,22.37
2023-01-02T14:19:25.930Z,21.75
2023-01-02T14:22:29.049Z,22.13
2023-01-02T14:25:33.036Z,23.77
2023-01-02T14:28:40.006Z,22.67
2023-01-02T14:31:43.401Z,23.50
2023-01-02T14:34:48.756Z,23.27
2023-01-02T14:37:56.616Z,24.27
2023-01-02T14:41:19.545Z,24.00
2023-01-02T14:44:22.296Z,24.83
2023-01-02T14:47:38.377Z,25.88
2023-01-02T14:50:43.307Z,26.10
2023-01-02T14:53:52.028Z,24.70
2023-01-02T14:56:57.914Z,26.95
2023-01-02T15:00:11.746Z,27.60
2023-01-02T15:03:56.922Z,27.45
2023-01-02T15:07:23.967Z,24.83
2023-01-02T15:10:26.445Z,24.73
2023-01-02T15:13:29.079Z,28.12
2023-01-02T15:16:32.002Z,26.58
2023-01-02T15:19:35.503Z,24.30
2023-01-02T15:22:37.899Z,26.05
2023-01-02T15:25:41.728Z,25.80
2023-01-02T15:28:44.010Z,26.27
2023-01-02T15:31:58.876Z,24.95
2023-01-02T15:35:20.455Z,26.98
2023-01-02T15:38:23.481Z,25.58
2023-01-02T15:41:25.959Z,25.48
2023-01-02T15:44:52.022Z,25.73
2023-01-02T15:47:54.829Z,24.20
2023-01-02T15:50:58.913Z,28.58
2023-01-02T15:54:03.483Z,26.23
2023-01-02T15:57:15.077Z,24.15
2023-01-02T16:00:34.295Z,25.70
2023-01-02T16:07:26.492Z,24.58
2023-01-02T16:10:30.365Z,24.92
2023-01-02T16:14:00.068Z,26.52
2023-01-02T16:17:06.313Z,26.27
2023-01-02T16:20:14.970Z,25.90
2023-01-02T16:23:21.365Z,28.65
2023-01-02T16:26:30.643Z,27.25
2023-01-02T16:29:33.258Z,24.87
2023-01-02T16:32:47.799Z,26.52
2023-01-02T16:36:00.762Z,24.65
2023-01-02T16:39:03.871Z,26.70
2023-01-02T16:42:27.290Z,25.40
2023-01-02T16:45:31.379Z,27.50
2023-01-02T16:48:37.745Z,25.55
2023-01-02T16:51:42.846Z,27.80
2023-01-02T16:54:48.065Z,26.95
2023-01-02T17:01:00.669Z,26.60
2023-01-02T17:04:03.629Z,27.73
2023-01-02T17:07:06.263Z,27.10
2023-01-02T17:10:08.587Z,28.62
2023-01-02T17:13:11.518Z,30.00
2023-01-02T17:16:13.859Z,25.90
2023-01-02T17:19:17.621Z,26.80
2023-01-02T17:22:20.130Z,26.60
2023-01-02T17:25:23.912Z,25.67
2023-01-02T17:28:27.599Z,30.70
2023-01-02T17:31:30.280Z,25.77
2023-01-02T17:34:32.895Z,24.60
2023-01-02T17:37:36.086Z,27.17
2023-01-02T17:40:45.104Z,25.85
2023-01-02T17:44:02.253Z,27.62
2023-01-02T17:47:38.721Z,25.58
2023-01-02T17:50:28.731Z,25.90
2023-01-02T17:53:33.111Z,28.98
2023-01-02T17:56:35.596Z,26.02
2023-01-02T17:59:40.861Z,27.30
2023-01-02T18:02:43.725Z,28.00
2023-01-02T18:05:46.253Z,26.95
2023-01-02T18:08:48.690Z,27.62
2023-01-02T18:11:51.220Z,26.98
2023-01-02T18:14:58.746Z,25.77
2023-01-02T18:18:06.366Z,25.48
2023-01-02T18:21:22.017Z,24.70
2023-01-02T18:24:31.030Z,26.48
2023-01-02T18:27:34.924Z,25.52
2023-01-02T18:30:37.555Z,23.70
2023-01-02T18:33:40.405Z,24.73
2023-01-02T18:36:43.071Z,25.48
2023-01-02T18:39:45.326Z,25.20
2023-01-02T18:42:53.455Z,25.70
2023-01-02T18:45:58.909Z,23.20
2023-01-02T18:49:19.035Z,26.02
2023-01-02T18:55:34.125Z,23.17
2023-01-02T18:58:49.040Z,23.12
2023-01-02T19:01:52.376Z,23.35
2023-01-02T19:04:56.348Z,24.37
2023-01-02T19:08:08.020Z,24.30
2023-01-02T19:11:52.328Z,23.00
2023-01-02T19:14:55.495Z,24.87
2023-01-02T19:18:01.818Z,24.98
2023-01-02T19:21:10.123Z,24.20
2023-01-02T19:24:22.655Z,23.40
2023-01-02T19:27:35.003Z,25.10
2023-01-02T19:30:47.910Z,23.73
2023-01-02T19:33:57.203Z,25.67
2023-01-02T19:37:11.845Z,23.80
2023-01-02T19:40:20.689Z,24.15
2023-01-02T19:43:22.983Z,25.75
2023-01-02T19:46:25.526Z,23.95
2023-01-02T19:49:27.833Z,23.40
2023-01-02T19:52:30.577Z,24.17
2023-01-02T19:55:33.533Z,25.60
2023-01-02T19:58:36.148Z,22.25
2023-01-02T20:01:38.411Z,21.45
2023-01-02T20:04:41.796Z,20.42
2023-01-02T20:07:44.586Z,22.27
2023-01-02T20:10:47.104Z,20.80
2023-01-02T20:13:49.367Z,22.95
2023-01-02T20:16:52.259Z,21.73
2023-01-02T20:19:57.844Z,21.48
2023-01-02T20:23:01.886Z,21.17
2023-01-02T20:26:04.313Z,22.83
2023-01-02T20:29:06.837Z,23.00
2023-01-02T20:32:09.089Z,21.48
2023-01-02T20:35:11.801Z,20.58
2023-01-02T20:38:14.280Z,23.33
2023-01-02T20:41:18.001Z,21.60
2023-01-02T20:44:20.229Z,21.75
2023-01-02T20:47:23.803Z,21.30
2023-01-02T20:50:26.044Z,22.20
2023-01-02T20:53:28.579Z,22.35
2023-01-02T20:56:31.380Z,20.40
2023-01-02T20:59:34.185Z,21.33
2023-01-02T21:02:36.764Z,20.60
2023-01-02T21:05:40.288Z,22.02
2023-01-02T21:08:42.830Z,23.25
2023-01-02T21:11:45.340Z,21.83
2023-01-02T21:14:47.548Z,22.83
2023-01-02T21:17:51.678Z,21.70
2023-01-02T21:20:59.570Z,23.83
2023-01-02T21:24:02.071Z,24.33
2023-01-02T21:27:09.250Z,22.80
2023-01-02T21:30:16.265Z,24.55
2023-01-02T21:33:21.000Z,24.55
2023-01-02T21:36:23.680Z,24.00
2023-01-02T21:39:27.657Z,25.73
2023-01-02T21:42:30.221Z,24.52
2023-01-02T21:45:33.138Z,23.10
2023-01-02T21:48:37.895Z,23.65
2023-01-02T21:51:40.108Z,22.35
2023-01-02T21:54:42.851Z,22.23
2023-01-02T21:58:12.325Z,23.08
2023-01-02T22:01:09.369Z,22.77
2023-01-02T22:04:14.458Z,22.70
2023-01-02T22:07:32.812Z,24.25
2023-01-02T22:10:36.919Z,23.30
2023-01-02T22:13:39.135Z,22.15
2023-01-02T22:16:43.580Z,22.65
2023-01-02T22:19:45.913Z,23.02
2023-01-02T22:22:48.730Z,23.42
2023-01-02T22:25:50.889Z,22.83
2023-01-02T22:28:55.609Z,22.08
2023-01-02T22:31:59.881Z,19.25
2023-01-02T22:35:04.829Z,19.17
2023-01-02T22:38:06.986Z,18.98
2023-01-02T22:41:09.456Z,18.83
2023-01-02T22:44:17.539Z,18.58
2023-01-02T22:47:27.351Z,16.47
2023-01-02T22:50:40.522Z,16.42
2023-01-02T22:53:43.152Z,16.98
2023-01-02T22:56:45.807Z,17.33
2023-01-02T22:59:50.477Z,16.33
2023-01-02T23:02:52.822Z,16.33
2023-01-02T23:05:55.609Z,17.23
2023-01-02T23:08:58.829Z,18.08
2023-01-02T23:12:01.302Z,17.95
2023-01-02T23:15:04.022Z,17.05
2023-01-02T23:18:25.330Z,17.67
2023-01-02T23:21:29.943Z,18.20
2023-01-02T23:24:35.285Z,17.33
2023-01-02T23:27:37.485Z,17.30
2023-01-02T23:30:40.223Z,17.37
2023-01-02T23:33:42.601Z,18.48
2023-01-02T23:36:46.884Z,16.25
2023-01-02T23:39:49.149Z,17.75
2023-01-02T23:42:51.645Z,16.27
2023-01-02T23:45:53.967Z,16.67
2023-01-02T23:48:56.537Z,17.52
2023-01-02T23:51:58.766Z,16.02
2023-01-02T23:55:01.385Z,14.98
2023-01-02T23:58:03.713Z,15.27
